METAR Data
IDs: Format: Raw Decoded Include TAF

Data at: 1453 UTC 11 Dec 2018

KBPG 111435Z AUTO 16010KT 10SM CLR 04/03 A3026 RMK AO2 T00390025
KBPG 111415Z AUTO 16009KT 10SM CLR 03/02 A3026 RMK AO2 T00340021
KBPG 111355Z AUTO 15009KT 7SM CLR 03/02 A3026 RMK AO2 T00260016
KBPG 111335Z AUTO 01008KT 10SM CLR 02/01 A3026 RMK AO2 T00180009
KBPG 111315Z AUTO 15007KT 10SM CLR 02/01 A3026 RMK AO2 T00150005
KBPG 111255Z AUTO 15006KT 7SM CLR 01/00 A3027 RMK AO2 T00100001
KBPG 111235Z AUTO 16006KT 7SM CLR 01/00 A3027 RMK AO2 T00070000
KBPG 111215Z AUTO 16006KT 7SM CLR 01/00 A3026 RMK AO2 T00070000
KBPG 111155Z AUTO 17007KT 7SM CLR 01/00 A3027 RMK AO2 T00070000 10016 21007
KBPG 111135Z AUTO 17007KT 7SM CLR 01/00 A3028 RMK AO2 T00070000
KBPG 111115Z AUTO 16007KT 7SM CLR 01/00 A3028 RMK AO2 T00090000
KBPG 111055Z AUTO 17007KT 5SM CLR 01/00 A3028 RMK AO2 T00070000
KBPG 111035Z AUTO 18005KT 5SM CLR 00/00 A3028 RMK AO2 T00021001
KBPG 111015Z AUTO 15005KT 5SM CLR 01/00 A3028 RMK AO2 T00080000
KBPG 110955Z AUTO 15007KT 4SM CLR 01/00 A3029 RMK AO2 T00100003
KBPG 110935Z AUTO 15007KT 4SM CLR 01/00 A3030 RMK AO2 T00080003
KBPG 110915Z AUTO 16006KT 3SM CLR 01/01 A3030 RMK AO2 T00070005
KBPG 110855Z AUTO 16007KT 2 1/2SM CLR 01/01 A3031 RMK AO2 T00060005
KBPG 110835Z AUTO 16007KT 1 3/4SM VV007 01/00 A3031 RMK AO2 T00050003
KBPG 110815Z AUTO 17004KT 1 3/4SM VV007 01/01 A3032 RMK AO2 T00050005
KBPG 110755Z AUTO 17004KT 3/4SM VV005 00/00 A3032 RMK AO2 T00001001
KBPG 110735Z AUTO 00000KT 1/4SM VV002 00/00 A3032 RMK AO2 T10031004
KBPG 110715Z AUTO 00000KT 1/4SM VV002 00/00 A3032 RMK AO2 T00000000
KBPG 110655Z AUTO 00000KT M1/4SM BKN001 00/00 A3032 RMK AO2 T00001002
KBPG 110635Z AUTO 00000KT M1/4SM VV000 01/00 A3033 RMK AO2 T00050003
KBPG 110615Z AUTO 15004KT 3/4SM VV005 02/02 A3033 RMK AO2 T00160015
KBPG 110555Z AUTO 14003KT 1SM VV007 02/01 A3034 RMK AO2 T00160014 10085 20010 401261030
KBPG 110535Z AUTO 00000KT 1SM VV007 02/01 A3035 RMK AO2 T00150012
KBPG 110515Z AUTO 16003KT 1 1/4SM VV007 02/02 A3035 RMK AO2 T00180015
KBPG 110455Z AUTO 16004KT 1 1/4SM VV007 02/02 A3035 RMK AO2 T00210018
KBPG 110435Z AUTO 15005KT 1 1/4SM VV007 02/02 A3035 RMK AO2 T00200017
KBPG 110415Z AUTO 17004KT 1 1/2SM VV007 02/02 A3036 RMK AO2 T00210017
KBPG 110355Z AUTO 00000KT 1 3/4SM VV007 03/02 A3035 RMK AO2 T00250021
KBPG 110335Z AUTO 16004KT 2SM CLR 03/03 A3035 RMK AO2 T00300025
KBPG 110310Z AUTO 13003KT 2 1/2SM CLR 04/03 A3035 RMK AO2 T00350028
KBPG 110255Z AUTO 00000KT 2 1/2SM CLR 04/03 A3036 RMK AO2 T00380031
KBPG 110235Z AUTO 14003KT 3SM CLR 04/03 A3035 RMK AO2 T00400031
KBPG 110215Z AUTO 14004KT 3SM CLR 05/04 A3035 RMK AO2 T00450035
KBPG 110155Z AUTO 15006KT 4SM CLR 05/04 A3035 RMK AO2 T00490037
KBPG 110135Z AUTO 16006KT 5SM CLR 05/04 A3034 RMK AO2 T00520039
KBPG 110115Z AUTO 16007KT 5SM CLR 06/04 A3034 RMK AO2 T00560040
KBPG 110055Z AUTO 15007KT 7SM CLR 06/04 A3033 RMK AO2 T00640042
KBPG 110035Z AUTO 15006KT 10SM CLR 07/04 A3033 RMK AO2 T00690042
KBPG 110015Z AUTO 17007KT 7SM CLR 08/04 A3033 RMK AO2 T00750043
KBPG 102355Z AUTO 16006KT 7SM CLR 09/05 A3033 RMK AO2 T00860046 10126 20080
KBPG 102335Z AUTO 16007KT 7SM CLR 10/05 A3033 RMK AO2 T00970050
KBPG 102315Z AUTO 17006KT 7SM CLR 11/04 A3033 RMK AO2 T01100035
KBPG 102255Z AUTO 00000KT 10SM CLR 12/03 A3032 RMK AO2 T01200027
KBPG 102235Z AUTO 19004KT 10SM CLR 13/02 A3032 RMK AO2 T01250019
KBPG 102215Z AUTO 22003KT 10SM CLR 13/02 A3032 RMK AO2 T01260018
KBPG 102155Z AUTO 00000KT 7SM CLR 13/02 A3032 RMK AO2 T01250016
KBPG 102135Z AUTO 00000KT 10SM CLR 12/01 A3032 RMK AO2 T01230011
KBPG 102115Z AUTO 22003KT 7SM CLR 12/02 A3032 RMK AO2 T01240016
KBPG 102055Z AUTO 00000KT 10SM CLR 12/02 A3033 RMK AO2 T01210015
KBPG 102035Z AUTO 32004KT 7SM CLR 12/02 A3033 RMK AO2 T01200024
KBPG 102015Z AUTO 30004KT 7SM CLR 11/02 A3034 RMK AO2 T01140018
KBPG 101955Z AUTO 24007KT 7SM CLR 11/02 A3035 RMK AO2 T01100024
KBPG 101935Z AUTO 24007KT 10SM CLR 11/03 A3036 RMK AO2 T01060028
KBPG 101915Z AUTO 25003KT 7SM CLR 10/03 A3036 RMK AO2 T01000030
KBPG 101855Z AUTO 25006KT 7SM CLR 10/03 A3037 RMK AO2 T00960034
KBPG 101835Z AUTO 25006KT 7SM CLR 09/03 A3038 RMK AO2 T00930034
KBPG 101815Z AUTO 24006KT 7SM CLR 09/03 A3040 RMK AO2 T00860034
KBPG 101755Z AUTO 26006KT 7SM CLR 08/03 A3040 RMK AO2 T00800032 10080 21030
KBPG 101735Z AUTO 31007KT 240V320 5SM CLR 07/03 A3041 RMK AO2 T00710029
KBPG 101715Z AUTO 24006KT 5SM CLR 06/02 A3042 RMK AO2 T00600023
KBPG 101655Z AUTO 25006KT 5SM CLR 05/02 A3043 RMK AO2 T00480017
KBPG 101635Z AUTO 24005KT 5SM CLR 04/01 A3044 RMK AO2 T00410014
KBPG 101615Z AUTO 26005KT 4SM CLR 03/01 A3044 RMK AO2 T00330010
KBPG 101555Z AUTO 28003KT 4SM CLR 02/00 A3044 RMK AO2 T00220003
KBPG 101535Z AUTO 28004KT 4SM CLR 01/00 A3043 RMK AO2 T00111002
KBPG 101515Z AUTO 26004KT 3SM CLR 01/M01 A3042 RMK AO2 T00051006
KBPG 101455Z AUTO 00000KT 4SM CLR 00/M01 A3041 RMK AO2 T00001014
KBPG 101435Z AUTO 00000KT 5SM CLR M01/M02 A3041 RMK AO2 T10071020
KBPG 101415Z AUTO 00000KT 5SM CLR M02/M03 A3041 RMK AO2 T10221030
KBPG 101355Z AUTO 00000KT 4SM CLR M03/M04 A3041 RMK AO2 T10301038
KBPG 101335Z AUTO 00000KT 7SM CLR M02/M03 A3041 RMK AO2 T10171028
KBPG 101315Z AUTO 00000KT 7SM CLR M02/M03 A3041 RMK AO2 T10201029
KBPG 101255Z AUTO 16003KT 5SM CLR M02/M03 A3040 RMK AO2 T10221029
KBPG 101235Z AUTO 17003KT 5SM CLR M02/M03 A3040 RMK AO2 T10211030
KBPG 101215Z AUTO 18003KT 7SM CLR M02/M03 A3040 RMK AO2 T10201030
KBPG 101155Z AUTO 00000KT 7SM CLR M01/M02 A3039 RMK AO2 T10131023 10000 21023
KBPG 101135Z AUTO 19004KT 7SM CLR M01/M02 A3038 RMK AO2 T10151024
KBPG 101115Z AUTO 00000KT 7SM CLR M01/M02 A3038 RMK AO2 T10111022
KBPG 101055Z AUTO 00000KT 7SM CLR M01/M02 A3038 RMK AO2 T10131023
KBPG 101035Z AUTO 00000KT 7SM CLR M02/M03 A3038 RMK AO2 T10171027
KBPG 101015Z AUTO 00000KT 5SM CLR M02/M03 A3039 RMK AO2 T10181026
KBPG 100955Z AUTO 00000KT 7SM CLR M02/M03 A3039 RMK AO2 T10201028
KBPG 100935Z AUTO 15003KT 7SM CLR M02/M03 A3039 RMK AO2 T10231031
KBPG 100915Z AUTO 00000KT 7SM CLR M02/M03 A3039 RMK AO2 T10181029
KBPG 100855Z AUTO 00000KT 7SM CLR M01/M02 A3040 RMK AO2 T10131023
KBPG 100835Z AUTO 00000KT 7SM CLR M01/M02 A3040 RMK AO2 T10141022
KBPG 100815Z AUTO 00000KT 7SM CLR M02/M03 A3040 RMK AO2 T10181028
KBPG 100755Z AUTO 00000KT 10SM CLR M01/M02 A3040 RMK AO2 T10101020
KBPG 100735Z AUTO 00000KT 10SM CLR M02/M03 A3040 RMK AO2 T10161027
KBPG 100715Z AUTO 00000KT 10SM CLR M01/M03 A3040 RMK AO2 T10151026
KBPG 100655Z AUTO 00000KT 10SM CLR 00/M01 A3040 RMK AO2 T10011015
KBPG 100635Z AUTO 00000KT 10SM CLR 00/M01 A3040 RMK AO2 T00001013
KBPG 100615Z AUTO 00000KT 10SM CLR 00/M01 A3041 RMK AO2 T00001015
KBPG 100555Z AUTO 00000KT 10SM CLR 00/M02 A3041 RMK AO2 T00021019 10062 20002 400791015
KBPG 100535Z AUTO 00000KT 10SM CLR 01/M02 A3041 RMK AO2 T00101021
KBPG 100515Z AUTO 00000KT 10SM CLR 01/M02 A3041 RMK AO2 T00111022
KBPG 100455Z AUTO 00000KT 10SM CLR 02/M02 A3041 RMK AO2 T00191025
KBPG 100435Z AUTO 00000KT 10SM CLR 01/M02 A3041 RMK AO2 T00141020
KBPG 100415Z AUTO 03005KT 10SM CLR 02/M02 A3041 RMK AO2 T00221016
KBPG 100355Z AUTO 00000KT 10SM CLR 02/M02 A3041 RMK AO2 T00161018
KBPG 100335Z AUTO 07003KT 10SM CLR 02/M01 A3041 RMK AO2 T00151012
KBPG 100315Z AUTO 05006KT 10SM CLR 02/M01 A3040 RMK AO2 T00231008
KBPG 100255Z AUTO 06004KT 10SM CLR 03/00 A3040 RMK AO2 T00311005